sensor_id;sensor_type;location;lat;lon;timestamp;temperature;humidity
4584;DHT22;2304;47.606;12.186;2022-11-20T00:04:37;8.20;79.20
4584;DHT22;2304;47.606;12.186;2022-11-20T00:09:39;8.20;78.60
4584;DHT22;2304;47.606;12.186;2022-11-20T00:14:43;8.20;79.40
4584;DHT22;2304;47.606;12.186;2022-11-20T00:19:45;8.20;78.80
4584;DHT22;2304;47.606;12.186;2022-11-20T00:24:46;8.10;79.40
4584;DHT22;2304;47.606;12.186;2022-11-20T00:29:50;8.10;79.30
4584;DHT22;2304;47.606;12.186;2022-11-20T00:34:52;8.10;79.60
4584;DHT22;2304;47.606;12.186;2022-11-20T00:39:54;8.20;79.70
4584;DHT22;2304;47.606;12.186;2022-11-20T00:44:57;8.20;79.40
4584;DHT22;2304;47.606;12.186;2022-11-20T00:49:59;8.20;79.70
4584;DHT22;2304;47.606;12.186;2022-11-20T00:55:01;8.20;79.10
4584;DHT22;2304;47.606;12.186;2022-11-20T01:00:06;8.20;79.70
4584;DHT22;2304;47.606;12.186;2022-11-20T01:05:08;8.20;80.00
4584;DHT22;2304;47.606;12.186;2022-11-20T01:10:10;8.20;80.40
4584;DHT22;2304;47.606;12.186;2022-11-20T01:15:14;8.20;80.10
4584;DHT22;2304;47.606;12.186;2022-11-20T01:20:16;8.20;80.10
4584;DHT22;2304;47.606;12.186;2022-11-20T01:25:18;8.10;80.20
4584;DHT22;2304;47.606;12.186;2022-11-20T01:30:21;8.30;81.60
4584;DHT22;2304;47.606;12.186;2022-11-20T01:35:23;8.10;81.10
4584;DHT22;2304;47.606;12.186;2022-11-20T01:40:25;8.00;80.80
4584;DHT22;2304;47.606;12.186;2022-11-20T01:45:56;8.20;82.30
4584;DHT22;2304;47.606;12.186;2022-11-20T01:50:58;8.10;83.00
4584;DHT22;2304;47.606;12.186;2022-11-20T01:56:03;8.00;82.90
4584;DHT22;2304;47.606;12.186;2022-11-20T02:01:08;8.00;83.10
4584;DHT22;2304;47.606;12.186;2022-11-20T02:06:14;8.00;83.10
4584;DHT22;2304;47.606;12.186;2022-11-20T02:11:18;7.90;83.00
4584;DHT22;2304;47.606;12.186;2022-11-20T02:16:25;8.00;82.30
4584;DHT22;2304;47.606;12.186;2022-11-20T02:21:35;8.00;82.10
4584;DHT22;2304;47.606;12.186;2022-11-20T02:26:44;8.00;82.20
4584;DHT22;2304;47.606;12.186;2022-11-20T02:31:47;7.90;83.30
4584;DHT22;2304;47.606;12.186;2022-11-20T02:36:50;8.20;83.50
4584;DHT22;2304;47.606;12.186;2022-11-20T02:41:56;8.00;83.00
4584;DHT22;2304;47.606;12.186;2022-11-20T02:46:58;8.00;83.20
4584;DHT22;2304;47.606;12.186;2022-11-20T02:52:00;8.00;83.10
4584;DHT22;2304;47.606;12.186;2022-11-20T02:57:05;8.00;83.00
4584;DHT22;2304;47.606;12.186;2022-11-20T03:02:07;8.00;83.20
4584;DHT22;2304;47.606;12.186;2022-11-20T03:07:09;8.10;83.20
4584;DHT22;2304;47.606;12.186;2022-11-20T03:12:13;8.10;84.30
4584;DHT22;2304;47.606;12.186;2022-11-20T03:17:16;7.90;84.00
4584;DHT22;2304;47.606;12.186;2022-11-20T03:22:18;7.90;83.90
4584;DHT22;2304;47.606;12.186;2022-11-20T03:27:21;7.90;83.70
4584;DHT22;2304;47.606;12.186;2022-11-20T03:32:23;8.10;83.80
4584;DHT22;2304;47.606;12.186;2022-11-20T03:37:25;7.90;83.20
4584;DHT22;2304;47.606;12.186;2022-11-20T03:42:28;7.90;82.60
4584;DHT22;2304;47.606;12.186;2022-11-20T03:47:48;7.90;82.60
4584;DHT22;2304;47.606;12.186;2022-11-20T03:52:50;7.90;81.50
4584;DHT22;2304;47.606;12.186;2022-11-20T03:57:53;8.10;80.60
4584;DHT22;2304;47.606;12.186;2022-11-20T04:02:57;7.80;79.20
4584;DHT22;2304;47.606;12.186;2022-11-20T04:08:00;8.00;79.40
4584;DHT22;2304;47.606;12.186;2022-11-20T04:13:03;7.90;80.20
4584;DHT22;2304;47.606;12.186;2022-11-20T04:18:05;8.00;80.70
4584;DHT22;2304;47.606;12.186;2022-11-20T04:23:07;7.90;81.10
4584;DHT22;2304;47.606;12.186;2022-11-20T04:28:10;7.90;81.30
4584;DHT22;2304;47.606;12.186;2022-11-20T04:33:12;7.90;82.10
4584;DHT22;2304;47.606;12.186;2022-11-20T04:38:14;7.90;81.80
4584;DHT22;2304;47.606;12.186;2022-11-20T04:43:17;8.10;81.90
4584;DHT22;2304;47.606;12.186;2022-11-20T04:48:19;7.90;81.80
4584;DHT22;2304;47.606;12.186;2022-11-20T04:53:21;7.80;82.10
4584;DHT22;2304;47.606;12.186;2022-11-20T04:58:25;8.20;82.60
4584;DHT22;2304;47.606;12.186;2022-11-20T05:03:27;7.90;82.10
4584;DHT22;2304;47.606;12.186;2022-11-20T05:08:29;7.80;81.10
4584;DHT22;2304;47.606;12.186;2022-11-20T05:13:33;7.80;80.60
4584;DHT22;2304;47.606;12.186;2022-11-20T05:18:35;7.80;80.70
4584;DHT22;2304;47.606;12.186;2022-11-20T05:23:38;7.80;80.70
4584;DHT22;2304;47.606;12.186;2022-11-20T05:28:41;7.80;80.60
4584;DHT22;2304;47.606;12.186;2022-11-20T05:33:44;7.80;80.00
4584;DHT22;2304;47.606;12.186;2022-11-20T05:38:46;7.80;79.80
4584;DHT22;2304;47.606;12.186;2022-11-20T05:43:50;7.70;80.10
4584;DHT22;2304;47.606;12.186;2022-11-20T05:48:52;7.80;79.80
4584;DHT22;2304;47.606;12.186;2022-11-20T05:53:56;7.80;79.50
4584;DHT22;2304;47.606;12.186;2022-11-20T05:58:59;7.80;80.00
4584;DHT22;2304;47.606;12.186;2022-11-20T06:04:01;7.80;79.90
4584;DHT22;2304;47.606;12.186;2022-11-20T06:09:03;7.80;79.50
4584;DHT22;2304;47.606;12.186;2022-11-20T06:14:06;7.80;79.50
4584;DHT22;2304;47.606;12.186;2022-11-20T06:19:08;7.90;80.00
4584;DHT22;2304;47.606;12.186;2022-11-20T06:24:10;8.00;82.80
4584;DHT22;2304;47.606;12.186;2022-11-20T06:29:14;7.90;79.40
4584;DHT22;2304;47.606;12.186;2022-11-20T06:34:16;8.10;79.90
4584;DHT22;2304;47.606;12.186;2022-11-20T06:39:18;7.80;80.30
4584;DHT22;2304;47.606;12.186;2022-11-20T06:44:21;7.80;80.60
4584;DHT22;2304;47.606;12.186;2022-11-20T06:49:23;7.80;80.80
4584;DHT22;2304;47.606;12.186;2022-11-20T06:54:25;7.80;81.20
4584;DHT22;2304;47.606;12.186;2022-11-20T06:59:29;7.80;80.90
4584;DHT22;2304;47.606;12.186;2022-11-20T07:04:31;7.80;80.90
4584;DHT22;2304;47.606;12.186;2022-11-20T07:09:32;7.80;80.50
4584;DHT22;2304;47.606;12.186;2022-11-20T07:14:36;7.80;80.20
4584;DHT22;2304;47.606;12.186;2022-11-20T07:19:38;7.80;80.20
4584;DHT22;2304;47.606;12.186;2022-11-20T07:24:40;7.80;80.10
4584;DHT22;2304;47.606;12.186;2022-11-20T07:29:43;7.80;79.60
4584;DHT22;2304;47.606;12.186;2022-11-20T07:34:45;7.80;79.60
4584;DHT22;2304;47.606;12.186;2022-11-20T07:39:47;7.70;80.10
4584;DHT22;2304;47.606;12.186;2022-11-20T07:44:50;7.60;80.80
4584;DHT22;2304;47.606;12.186;2022-11-20T07:49:53;7.70;82.30
4584;DHT22;2304;47.606;12.186;2022-11-20T07:54:55;7.70;82.70
4584;DHT22;2304;47.606;12.186;2022-11-20T07:59:58;7.80;82.70
4584;DHT22;2304;47.606;12.186;2022-11-20T08:05:00;7.90;82.70
4584;DHT22;2304;47.606;12.186;2022-11-20T08:10:02;7.90;81.60
4584;DHT22;2304;47.606;12.186;2022-11-20T08:15:07;7.90;81.00
4584;DHT22;2304;47.606;12.186;2022-11-20T08:20:10;8.00;81.20
4584;DHT22;2304;47.606;12.186;2022-11-20T08:25:12;8.20;80.20
4584;DHT22;2304;47.606;12.186;2022-11-20T08:30:15;8.00;81.30
4584;DHT22;2304;47.606;12.186;2022-11-20T08:35:18;8.00;81.30
4584;DHT22;2304;47.606;12.186;2022-11-20T08:40:19;7.90;80.90
4584;DHT22;2304;47.606;12.186;2022-11-20T08:45:23;7.90;81.80
4584;DHT22;2304;47.606;12.186;2022-11-20T08:50:25;8.30;81.70
4584;DHT22;2304;47.606;12.186;2022-11-20T08:55:27;8.00;80.20
4584;DHT22;2304;47.606;12.186;2022-11-20T09:00:30;8.30;79.80
4584;DHT22;2304;47.606;12.186;2022-11-20T09:05:32;8.10;79.20
4584;DHT22;2304;47.606;12.186;2022-11-20T09:10:34;8.10;78.60
4584;DHT22;2304;47.606;12.186;2022-11-20T09:15:38;8.00;79.00
4584;DHT22;2304;47.606;12.186;2022-11-20T09:20:40;8.00;80.00
4584;DHT22;2304;47.606;12.186;2022-11-20T09:25:42;8.00;80.50
4584;DHT22;2304;47.606;12.186;2022-11-20T09:30:45;8.10;80.30
4584;DHT22;2304;47.606;12.186;2022-11-20T09:35:47;8.20;80.50
4584;DHT22;2304;47.606;12.186;2022-11-20T09:40:56;8.50;80.00
4584;DHT22;2304;47.606;12.186;2022-11-20T09:46:06;8.50;79.40
4584;DHT22;2304;47.606;12.186;2022-11-20T09:51:16;8.60;77.90
4584;DHT22;2304;47.606;12.186;2022-11-20T09:56:23;8.90;75.90
4584;DHT22;2304;47.606;12.186;2022-11-20T10:01:31;9.40;74.60
4584;DHT22;2304;47.606;12.186;2022-11-20T10:06:40;9.60;72.20
4584;DHT22;2304;47.606;12.186;2022-11-20T10:11:48;9.80;70.90
4584;DHT22;2304;47.606;12.186;2022-11-20T10:17:03;9.80;70.30
4584;DHT22;2304;47.606;12.186;2022-11-20T10:22:20;9.90;72.20
4584;DHT22;2304;47.606;12.186;2022-11-20T10:27:39;9.80;71.50
4584;DHT22;2304;47.606;12.186;2022-11-20T10:32:45;10.00;72.30
4584;DHT22;2304;47.606;12.186;2022-11-20T10:37:53;10.50;72.70
4584;DHT22;2304;47.606;12.186;2022-11-20T10:42:59;10.50;68.60
4584;DHT22;2304;47.606;12.186;2022-11-20T10:48:15;10.80;67.80
4584;DHT22;2304;47.606;12.186;2022-11-20T10:53:31;10.90;64.70
4584;DHT22;2304;47.606;12.186;2022-11-20T10:58:38;11.20;66.20
4584;DHT22;2304;47.606;12.186;2022-11-20T11:03:44;11.60;65.30
4584;DHT22;2304;47.606;12.186;2022-11-20T11:08:47;11.30;61.90
4584;DHT22;2304;47.606;12.186;2022-11-20T11:13:50;10.90;62.40
4584;DHT22;2304;47.606;12.186;2022-11-20T11:19:04;10.60;63.00
4584;DHT22;2304;47.606;12.186;2022-11-20T11:24:18;10.40;63.30
4584;DHT22;2304;47.606;12.186;2022-11-20T11:29:21;10.80;63.50
4584;DHT22;2304;47.606;12.186;2022-11-20T11:34:24;11.20;62.90
4584;DHT22;2304;47.606;12.186;2022-11-20T11:39:28;11.80;61.20
4584;DHT22;2304;47.606;12.186;2022-11-20T11:44:33;11.70;62.20
4584;DHT22;2304;47.606;12.186;2022-11-20T11:50:08;11.80;59.80
4584;DHT22;2304;47.606;12.186;2022-11-20T11:55:15;11.60;59.70
4584;DHT22;2304;47.606;12.186;2022-11-20T12:00:20;11.50;60.30
4584;DHT22;2304;47.606;12.186;2022-11-20T12:05:27;11.90;60.70
4584;DHT22;2304;47.606;12.186;2022-11-20T12:10:39;12.30;59.90
4584;DHT22;2304;47.606;12.186;2022-11-20T12:15:45;12.60;59.40
4584;DHT22;2304;47.606;12.186;2022-11-20T12:20:56;12.70;59.10
4584;DHT22;2304;47.606;12.186;2022-11-20T12:26:07;12.20;56.90
4584;DHT22;2304;47.606;12.186;2022-11-20T12:31:35;11.70;57.30
4584;DHT22;2304;47.606;12.186;2022-11-20T12:36:48;11.50;58.60
4584;DHT22;2304;47.606;12.186;2022-11-20T12:42:02;11.40;57.50
4584;DHT22;2304;47.606;12.186;2022-11-20T12:47:30;11.90;58.10
4584;DHT22;2304;47.606;12.186;2022-11-20T12:52:44;12.10;56.00
4584;DHT22;2304;47.606;12.186;2022-11-20T12:57:54;11.50;56.70
4584;DHT22;2304;47.606;12.186;2022-11-20T13:03:11;11.40;56.90
4584;DHT22;2304;47.606;12.186;2022-11-20T13:08:23;11.10;57.30
4584;DHT22;2304;47.606;12.186;2022-11-20T13:13:31;11.10;58.00
4584;DHT22;2304;47.606;12.186;2022-11-20T13:18:38;11.00;56.30
4584;DHT22;2304;47.606;12.186;2022-11-20T13:23:43;10.90;56.00
4584;DHT22;2304;47.606;12.186;2022-11-20T13:28:46;10.70;56.90
4584;DHT22;2304;47.606;12.186;2022-11-20T13:33:52;10.60;57.90
4584;DHT22;2304;47.606;12.186;2022-11-20T13:38:58;10.90;58.60
4584;DHT22;2304;47.606;12.186;2022-11-20T13:44:09;11.10;57.40
4584;DHT22;2304;47.606;12.186;2022-11-20T13:49:18;11.40;57.50
4584;DHT22;2304;47.606;12.186;2022-11-20T13:54:40;11.40;57.70
4584;DHT22;2304;47.606;12.186;2022-11-20T13:59:57;11.30;56.00
4584;DHT22;2304;47.606;12.186;2022-11-20T14:05:00;11.10;57.70
4584;DHT22;2304;47.606;12.186;2022-11-20T14:10:05;11.10;58.50
4584;DHT22;2304;47.606;12.186;2022-11-20T14:15:27;11.00;58.80
4584;DHT22;2304;47.606;12.186;2022-11-20T14:20:30;10.90;58.40
4584;DHT22;2304;47.606;12.186;2022-11-20T14:25:34;10.80;58.50
4584;DHT22;2304;47.606;12.186;2022-11-20T14:30:42;10.80;58.30
4584;DHT22;2304;47.606;12.186;2022-11-20T14:35:45;10.70;58.70
4584;DHT22;2304;47.606;12.186;2022-11-20T14:40:49;10.90;59.00
4584;DHT22;2304;47.606;12.186;2022-11-20T14:45:58;11.00;58.90
4584;DHT22;2304;47.606;12.186;2022-11-20T14:51:01;11.00;58.30
4584;DHT22;2304;47.606;12.186;2022-11-20T14:56:04;10.90;57.80
4584;DHT22;2304;47.606;12.186;2022-11-20T15:01:07;10.90;58.70
4584;DHT22;2304;47.606;12.186;2022-11-20T15:06:13;10.80;58.60
4584;DHT22;2304;47.606;12.186;2022-11-20T15:11:20;10.70;58.90
4584;DHT22;2304;47.606;12.186;2022-11-20T15:16:24;10.60;60.30
4584;DHT22;2304;47.606;12.186;2022-11-20T15:21:28;10.80;60.90
4584;DHT22;2304;47.606;12.186;2022-11-20T15:26:31;10.50;61.10
4584;DHT22;2304;47.606;12.186;2022-11-20T15:31:34;10.60;58.80
4584;DHT22;2304;47.606;12.186;2022-11-20T15:36:36;10.40;57.90
4584;DHT22;2304;47.606;12.186;2022-11-20T15:41:39;10.40;57.50
4584;DHT22;2304;47.606;12.186;2022-11-20T15:46:42;10.20;56.70
4584;DHT22;2304;47.606;12.186;2022-11-20T15:51:48;10.10;57.20
4584;DHT22;2304;47.606;12.186;2022-11-20T15:56:52;10.10;56.60
4584;DHT22;2304;47.606;12.186;2022-11-20T16:01:54;10.30;56.30
4584;DHT22;2304;47.606;12.186;2022-11-20T16:06:55;10.20;56.60
4584;DHT22;2304;47.606;12.186;2022-11-20T16:11:59;9.80;55.70
4584;DHT22;2304;47.606;12.186;2022-11-20T16:17:01;9.80;56.60
4584;DHT22;2304;47.606;12.186;2022-11-20T16:22:03;9.90;56.60
4584;DHT22;2304;47.606;12.186;2022-11-20T16:27:07;9.90;57.00
4584;DHT22;2304;47.606;12.186;2022-11-20T16:32:08;9.60;57.40
4584;DHT22;2304;47.606;12.186;2022-11-20T16:37:12;9.50;57.50
4584;DHT22;2304;47.606;12.186;2022-11-20T16:42:15;9.40;58.30
4584;DHT22;2304;47.606;12.186;2022-11-20T16:47:17;9.30;57.90
4584;DHT22;2304;47.606;12.186;2022-11-20T16:52:19;9.20;58.60
4584;DHT22;2304;47.606;12.186;2022-11-20T16:57:22;9.20;58.90
4584;DHT22;2304;47.606;12.186;2022-11-20T17:02:24;9.00;59.30
4584;DHT22;2304;47.606;12.186;2022-11-20T17:07:26;8.90;60.20
4584;DHT22;2304;47.606;12.186;2022-11-20T17:12:29;8.80;60.90
4584;DHT22;2304;47.606;12.186;2022-11-20T17:17:31;8.60;62.30
4584;DHT22;2304;47.606;12.186;2022-11-20T17:22:33;8.60;62.60
4584;DHT22;2304;47.606;12.186;2022-11-20T17:27:36;8.50;63.10
4584;DHT22;2304;47.606;12.186;2022-11-20T17:32:38;8.50;63.40
4584;DHT22;2304;47.606;12.186;2022-11-20T17:37:45;8.60;63.40
4584;DHT22;2304;47.606;12.186;2022-11-20T17:42:48;8.40;63.30
4584;DHT22;2304;47.606;12.186;2022-11-20T17:47:50;8.30;63.80
4584;DHT22;2304;47.606;12.186;2022-11-20T17:52:52;8.40;64.20
4584;DHT22;2304;47.606;12.186;2022-11-20T17:57:55;8.10;64.30
4584;DHT22;2304;47.606;12.186;2022-11-20T18:03:02;8.00;64.10
4584;DHT22;2304;47.606;12.186;2022-11-20T18:08:04;7.90;63.80
4584;DHT22;2304;47.606;12.186;2022-11-20T18:13:07;7.80;63.90
4584;DHT22;2304;47.606;12.186;2022-11-20T18:18:09;7.70;64.40
4584;DHT22;2304;47.606;12.186;2022-11-20T18:23:11;7.70;64.70
4584;DHT22;2304;47.606;12.186;2022-11-20T18:28:14;7.60;64.60
4584;DHT22;2304;47.606;12.186;2022-11-20T18:33:16;7.60;64.50
4584;DHT22;2304;47.606;12.186;2022-11-20T18:38:18;7.60;64.60
4584;DHT22;2304;47.606;12.186;2022-11-20T18:43:21;7.50;64.50
4584;DHT22;2304;47.606;12.186;2022-11-20T18:48:40;7.50;64.50
4584;DHT22;2304;47.606;12.186;2022-11-20T18:53:42;7.50;64.40
4584;DHT22;2304;47.606;12.186;2022-11-20T18:58:46;7.30;64.20
4584;DHT22;2304;47.606;12.186;2022-11-20T19:03:47;7.20;64.40
4584;DHT22;2304;47.606;12.186;2022-11-20T19:08:49;7.10;64.60
4584;DHT22;2304;47.606;12.186;2022-11-20T19:13:53;7.00;64.90
4584;DHT22;2304;47.606;12.186;2022-11-20T19:18:55;7.00;65.40
4584;DHT22;2304;47.606;12.186;2022-11-20T19:23:58;6.90;65.70
4584;DHT22;2304;47.606;12.186;2022-11-20T19:29:02;6.90;66.20
4584;DHT22;2304;47.606;12.186;2022-11-20T19:34:04;6.90;66.40
4584;DHT22;2304;47.606;12.186;2022-11-20T19:39:08;6.80;67.00
4584;DHT22;2304;47.606;12.186;2022-11-20T19:44:13;6.90;66.60
4584;DHT22;2304;47.606;12.186;2022-11-20T19:49:15;6.80;66.50
4584;DHT22;2304;47.606;12.186;2022-11-20T19:54:17;6.80;67.00
4584;DHT22;2304;47.606;12.186;2022-11-20T19:59:20;6.70;67.20
4584;DHT22;2304;47.606;12.186;2022-11-20T20:04:22;6.70;67.50
4584;DHT22;2304;47.606;12.186;2022-11-20T20:09:24;6.60;67.50
4584;DHT22;2304;47.606;12.186;2022-11-20T20:14:28;6.50;68.20
4584;DHT22;2304;47.606;12.186;2022-11-20T20:19:31;6.50;68.30
4584;DHT22;2304;47.606;12.186;2022-11-20T20:24:33;6.50;68.50
4584;DHT22;2304;47.606;12.186;2022-11-20T20:29:36;6.40;68.70
4584;DHT22;2304;47.606;12.186;2022-11-20T20:34:38;6.40;68.80
4584;DHT22;2304;47.606;12.186;2022-11-20T20:39:41;6.30;68.80
4584;DHT22;2304;47.606;12.186;2022-11-20T20:44:44;6.30;68.60
4584;DHT22;2304;47.606;12.186;2022-11-20T20:50:16;6.20;68.70
4584;DHT22;2304;47.606;12.186;2022-11-20T20:55:18;6.20;68.70
4584;DHT22;2304;47.606;12.186;2022-11-20T21:00:21;6.10;69.10
4584;DHT22;2304;47.606;12.186;2022-11-20T21:05:23;6.00;69.20
4584;DHT22;2304;47.606;12.186;2022-11-20T21:10:25;5.90;70.00
4584;DHT22;2304;47.606;12.186;2022-11-20T21:15:28;5.90;70.40
4584;DHT22;2304;47.606;12.186;2022-11-20T21:20:30;5.90;70.10
4584;DHT22;2304;47.606;12.186;2022-11-20T21:25:50;6.00;69.30
4584;DHT22;2304;47.606;12.186;2022-11-20T21:31:01;5.90;69.20
4584;DHT22;2304;47.606;12.186;2022-11-20T21:36:03;5.90;69.40
4584;DHT22;2304;47.606;12.186;2022-11-20T21:41:07;5.80;70.00
4584;DHT22;2304;47.606;12.186;2022-11-20T21:46:11;5.70;70.40
4584;DHT22;2304;47.606;12.186;2022-11-20T21:51:15;5.70;70.40
4584;DHT22;2304;47.606;12.186;2022-11-20T21:56:19;5.60;70.60
4584;DHT22;2304;47.606;12.186;2022-11-20T22:01:24;5.60;70.60
4584;DHT22;2304;47.606;12.186;2022-11-20T22:06:29;5.50;70.70
4584;DHT22;2304;47.606;12.186;2022-11-20T22:11:32;5.50;70.80
4584;DHT22;2304;47.606;12.186;2022-11-20T22:16:36;5.60;71.10
4584;DHT22;2304;47.606;12.186;2022-11-20T22:21:39;5.60;71.00
4584;DHT22;2304;47.606;12.186;2022-11-20T22:26:41;5.50;70.90
4584;DHT22;2304;47.606;12.186;2022-11-20T22:31:44;5.40;70.80
4584;DHT22;2304;47.606;12.186;2022-11-20T22:36:47;5.40;70.80
4584;DHT22;2304;47.606;12.186;2022-11-20T22:41:49;5.50;71.20
4584;DHT22;2304;47.606;12.186;2022-11-20T22:46:52;5.50;70.70
4584;DHT22;2304;47.606;12.186;2022-11-20T22:51:54;5.50;70.30
4584;DHT22;2304;47.606;12.186;2022-11-20T22:56:56;5.60;70.70
4584;DHT22;2304;47.606;12.186;2022-11-20T23:01:59;5.70;71.00
4584;DHT22;2304;47.606;12.186;2022-11-20T23:07:01;5.70;69.80
4584;DHT22;2304;47.606;12.186;2022-11-20T23:12:03;5.60;70.90
4584;DHT22;2304;47.606;12.186;2022-11-20T23:17:07;5.40;71.60
4584;DHT22;2304;47.606;12.186;2022-11-20T23:22:09;5.50;71.60
4584;DHT22;2304;47.606;12.186;2022-11-20T23:27:11;5.50;71.60
4584;DHT22;2304;47.606;12.186;2022-11-20T23:32:14;5.40;72.20
4584;DHT22;2304;47.606;12.186;2022-11-20T23:37:16;5.20;71.20
4584;DHT22;2304;47.606;12.186;2022-11-20T23:42:18;5.30;71.40
4584;DHT22;2304;47.606;12.186;2022-11-20T23:47:21;5.30;71.40
4584;DHT22;2304;47.606;12.186;2022-11-20T23:52:23;5.20;71.50
4584;DHT22;2304;47.606;12.186;2022-11-20T23:57:25;5.30;71.30
